Time;durP1;ratioP1;P1;durP2;ratioP2;P2;SDS_P1;SDS_P2;PMS_P1;PMS_P2;Temp;Humidity;BMP_temperature;BMP_pressure;BME280_temperature;BME280_humidity;BME280_pressure;Samples;Min_cycle;Max_cycle;Signal;HPM_P1;HPM_P2
2024/02/19 00:00:02;;;;;;;;;;;;;;;;;;4971143;28;19921;-73
2024/02/19 00:02:30;;;;;;;;;;;;;;;;;;4972376;28;19918;-74
2024/02/19 00:04:55;;;;;;;;;;;;;;;;;;4984610;28;20016;-75
2024/02/19 00:07:21;;;;;;;;;;;;;;;;;;4982398;28;21500;-73
2024/02/19 00:09:46;;;;;;;;;;;;;;;;;;4982629;28;20401;-73
2024/02/19 00:12:14;;;;;;;;;;;;;;;;;;4964721;28;19918;-73
2024/02/19 00:14:39;;;;;;;;;;;;;;;;;;4984043;28;20028;-73
2024/02/19 00:17:08;;;;;;;;;;;;;;;;;;4982497;28;20288;-75
2024/02/19 00:19:33;;;;;;;;;;;;;;;;;;4983495;28;20036;-73
2024/02/19 00:22:01;;;;;;;;;;;;;;;;;;4966608;28;20415;-73
2024/02/19 00:24:27;;;;;;;;;;;;;;;;;;4982594;28;19922;-74
2024/02/19 00:26:52;;;;;;;;;;;;;;;;;;4981338;28;20006;-74
2024/02/19 00:29:18;;;;;;;;;;;;;;;;;;4982405;28;19922;-76
2024/02/19 00:31:43;;;;;;;;;;;;;;;;;;4965584;28;20373;-74
2024/02/19 00:34:09;;;;;;;;;;;;;;;;;;4964835;28;19921;-73
2024/02/19 00:36:34;;;;;;;;;;;;;;;;;;4982742;28;20021;-75
2024/02/19 00:39:00;;;;;;;;;;;;;;;;;;4947855;28;19922;-75
2024/02/19 00:41:25;;;;;;;;;;;;;;;;;;4983597;28;20095;-74
2024/02/19 00:43:50;;;;;;;;;;;;;;;;;;4964004;28;19982;-77
2024/02/19 00:46:15;;;;;;;;;;;;;;;;;;4982500;28;19956;-73
2024/02/19 00:48:40;;;;;;;;;;;;;;;;;;4983695;28;19918;-74
2024/02/19 00:51:09;;;;;;;;;;;;;;;;;;4963540;28;19925;-74
2024/02/19 00:53:34;;;;;;;;;;;;;;;;;;4981551;28;20463;-73
2024/02/19 00:55:59;;;;;;;;;;;;;;;;;;4982414;28;19929;-72
2024/02/19 00:58:25;;;;;;;;;;;;;;;;;;4984337;28;19925;-73
2024/02/19 01:00:51;;;;;;;;;;;;;;;;;;4968518;28;19918;-72
2024/02/19 01:03:17;;;;;;;;;;;;;;;;;;4985900;28;19921;-71
2024/02/19 01:05:42;;;;;;;;;;;;;;;;;;4986197;28;19922;-70
2024/02/19 01:08:09;;;;;;;;;;;;;;;;;;4967724;28;19921;-72
2024/02/19 01:10:40;;;;;;;;;;;;;;;;;;4981562;28;19925;-71
2024/02/19 01:13:05;;;;;;;;;;;;;;;;;;4984317;28;19976;-70
2024/02/19 01:15:33;;;;;;;;;;;;;;;;;;4983771;28;20497;-71
2024/02/19 01:17:58;;;;;;;;;;;;;;;;;;4968484;28;19926;-71
2024/02/19 01:20:28;;;;;;;;;;;;;;;;;;4984024;28;20069;-70
2024/02/19 01:22:54;;;;;;;;;;;;;;;;;;4984546;28;19918;-71
2024/02/19 01:25:22;;;;;;;;;;;;;;;;;;4984733;28;19928;-71
2024/02/19 01:27:49;;;;;;;;;;;;;;;;;;4984166;28;19921;-71
2024/02/19 01:30:15;;;;;;;;;;;;;;;;;;4983887;28;19917;-71
2024/02/19 01:32:43;;;;;;;;;;;;;;;;;;4985193;28;19917;-72
2024/02/19 01:35:08;;;;;;;;;;;;;;;;;;4984821;28;20404;-71
2024/02/19 01:37:33;;;;;;;;;;;;;;;;;;4984849;28;20441;-71
2024/02/19 01:39:58;;;;;;;;;;;;;;;;;;4985639;28;19921;-71
2024/02/19 01:42:24;;;;;;;;;;;;;;;;;;4967830;28;19922;-71
2024/02/19 01:44:49;;;;;;;;;;;;;;;;;;4983235;28;19963;-72
2024/02/19 01:47:17;;;;;;;;;;;;;;;;;;4986280;28;19918;-72
2024/02/19 01:49:45;;;;;;;;;;;;;;;;;;4983661;28;20388;-70
2024/02/19 01:52:10;;;;;;;;;;;;;;;;;;4967174;28;19921;-71
2024/02/19 01:54:35;;;;;;;;;;;;;;;;;;4966961;28;19936;-70
2024/02/19 01:57:05;;;;;;;;;;;;;;;;;;4983933;28;20429;-71
2024/02/19 01:59:33;;;;;;;;;;;;;;;;;;4952970;28;19922;-71
2024/02/19 02:01:59;;;;;;;;;;;;;;;;;;4985764;28;19943;-70
2024/02/19 02:04:27;;;;;;;;;;;;;;;;;;4965888;28;20253;-71
2024/02/19 02:06:52;;;;;;;;;;;;;;;;;;4957481;28;20115;-70
2024/02/19 02:09:22;;;;;;;;;;;;;;;;;;4984103;28;19922;-70
2024/02/19 02:11:47;;;;;;;;;;;;;;;;;;4983737;28;20127;-71
2024/02/19 02:14:15;;;;;;;;;;;;;;;;;;4965306;28;19917;-71
2024/02/19 02:16:40;;;;;;;;;;;;;;;;;;4957975;28;19921;-71
2024/02/19 02:19:07;;;;;;;;;;;;;;;;;;4986243;28;19922;-72
2024/02/19 02:21:33;;;;;;;;;;;;;;;;;;4983748;28;19987;-72
2024/02/19 02:23:59;;;;;;;;;;;;;;;;;;4965831;28;19921;-73
2024/02/19 02:26:24;;;;;;;;;;;;;;;;;;4981576;28;19927;-71
2024/02/19 02:28:49;;;;;;;;;;;;;;;;;;4982233;28;19917;-72
2024/02/19 02:31:18;;;;;;;;;;;;;;;;;;4968410;28;19940;-71
2024/02/19 02:33:44;;;;;;;;;;;;;;;;;;4982172;28;20880;-73
2024/02/19 02:36:13;;;;;;;;;;;;;;;;;;4958887;28;19925;-72
2024/02/19 02:38:38;;;;;;;;;;;;;;;;;;4965577;28;20345;-74
2024/02/19 02:41:06;;;;;;;;;;;;;;;;;;4983206;28;19917;-72
2024/02/19 02:43:32;;;;;;;;;;;;;;;;;;4958670;28;19976;-72
2024/02/19 02:46:00;;;;;;;;;;;;;;;;;;4950021;28;20295;-71
2024/02/19 02:48:25;;;;;;;;;;;;;;;;;;4984499;28;20385;-70
2024/02/19 02:50:50;;;;;;;;;;;;;;;;;;4982023;28;20317;-71
2024/02/19 02:53:17;;;;;;;;;;;;;;;;;;4985554;28;19917;-72
2024/02/19 02:55:44;;;;;;;;;;;;;;;;;;4984062;28;19929;-71
2024/02/19 02:58:10;;;;;;;;;;;;;;;;;;4967247;28;21590;-71
2024/02/19 03:00:37;;;;;;;;;;;;;;;;;;4983541;28;19917;-73
2024/02/19 03:03:03;;;;;;;;;;;;;;;;;;4983252;28;19925;-71
2024/02/19 03:05:29;;;;;;;;;;;;;;;;;;4966467;28;19921;-72
2024/02/19 03:07:56;;;;;;;;;;;;;;;;;;4984269;28;19917;-72
2024/02/19 03:10:27;;;;;;;;;;;;;;;;;;4984248;28;20016;-72
2024/02/19 03:12:52;;;;;;;;;;;;;;;;;;4984110;28;19914;-72
2024/02/19 03:15:17;;;;;;;;;;;;;;;;;;4964123;28;19932;-72
2024/02/19 03:17:45;;;;;;;;;;;;;;;;;;4983411;28;20523;-71
2024/02/19 03:20:12;;;;;;;;;;;;;;;;;;4967743;28;20545;-71
2024/02/19 03:22:40;;;;;;;;;;;;;;;;;;4964454;28;21938;-71
2024/02/19 03:25:06;;;;;;;;;;;;;;;;;;4983961;28;20024;-73
2024/02/19 03:27:35;;;;;;;;;;;;;;;;;;4983492;28;19917;-71
2024/02/19 03:30:00;;;;;;;;;;;;;;;;;;4982542;28;19917;-71
2024/02/19 03:32:30;;;;;;;;;;;;;;;;;;4983416;28;19921;-72
2024/02/19 03:34:55;;;;;;;;;;;;;;;;;;4966130;28;19932;-72
2024/02/19 03:37:21;;;;;;;;;;;;;;;;;;4965302;28;19922;-71
2024/02/19 03:39:46;;;;;;;;;;;;;;;;;;4965723;28;21845;-71
2024/02/19 03:42:11;;;;;;;;;;;;;;;;;;4963462;28;19922;-72
2024/02/19 03:44:37;;;;;;;;;;;;;;;;;;4964699;28;20382;-73
2024/02/19 03:47:02;;;;;;;;;;;;;;;;;;4981819;28;19925;-73
2024/02/19 03:49:28;;;;;;;;;;;;;;;;;;4983567;28;20294;-73
2024/02/19 03:51:53;;;;;;;;;;;;;;;;;;4956892;28;20112;-73
2024/02/19 03:54:18;;;;;;;;;;;;;;;;;;4982814;28;19925;-73
2024/02/19 03:56:48;;;;;;;;;;;;;;;;;;4965614;28;20000;-73
2024/02/19 03:59:14;;;;;;;;;;;;;;;;;;4963564;28;19922;-73
2024/02/19 04:01:39;;;;;;;;;;;;;;;;;;4964816;28;19917;-73
2024/02/19 04:04:04;;;;;;;;;;;;;;;;;;4982792;28;19921;-72
2024/02/19 04:06:29;;;;;;;;;;;;;;;;;;4982209;28;20016;-72
2024/02/19 04:08:55;;;;;;;;;;;;;;;;;;4956453;28;20336;-73
2024/02/19 04:11:20;;;;;;;;;;;;;;;;;;4983592;28;19917;-72
2024/02/19 04:13:45;;;;;;;;;;;;;;;;;;4964666;28;19918;-72
2024/02/19 04:16:11;;;;;;;;;;;;;;;;;;4964309;28;20020;-72
2024/02/19 04:18:36;;;;;;;;;;;;;;;;;;4981655;28;19932;-72
2024/02/19 04:21:01;;;;;;;;;;;;;;;;;;4981199;28;19926;-72
2024/02/19 04:23:30;;;;;;;;;;;;;;;;;;4966564;28;19917;-73
2024/02/19 04:25:55;;;;;;;;;;;;;;;;;;4965450;28;19918;-71
2024/02/19 04:28:23;;;;;;;;;;;;;;;;;;4982715;28;19913;-72
2024/02/19 04:30:51;;;;;;;;;;;;;;;;;;4964518;28;19928;-72
2024/02/19 04:33:16;;;;;;;;;;;;;;;;;;4965845;28;19917;-72
2024/02/19 04:35:41;;;;;;;;;;;;;;;;;;4985704;28;20016;-72
2024/02/19 04:38:12;;;;;;;;;;;;;;;;;;4969877;28;20017;-72
2024/02/19 04:40:37;;;;;;;;;;;;;;;;;;4986008;28;20004;-72
2024/02/19 04:43:03;;;;;;;;;;;;;;;;;;4985994;28;20343;-72
2024/02/19 04:45:28;;;;;;;;;;;;;;;;;;4984803;28;20372;-71
2024/02/19 04:47:53;;;;;;;;;;;;;;;;;;4985594;28;19933;-71
2024/02/19 04:50:19;;;;;;;;;;;;;;;;;;4968500;28;19925;-72
2024/02/19 04:52:44;;;;;;;;;;;;;;;;;;4985691;28;19941;-72
2024/02/19 04:55:12;;;;;;;;;;;;;;;;;;4986104;28;19940;-72
2024/02/19 04:57:37;;;;;;;;;;;;;;;;;;4984379;28;19929;-73
2024/02/19 05:00:03;;;;;;;;;;;;;;;;;;4985529;28;19918;-73
2024/02/19 05:02:31;;;;;;;;;;;;;;;;;;4952155;28;19928;-72
2024/02/19 05:04:59;;;;;;;;;;;;;;;;;;4983772;28;19922;-72
2024/02/19 05:07:26;;;;;;;;;;;;;;;;;;4962745;28;19921;-71
2024/02/19 05:09:52;;;;;;;;;;;;;;;;;;4967787;28;21496;-71
2024/02/19 05:12:17;;;;;;;;;;;;;;;;;;4984965;28;19918;-72
2024/02/19 05:14:42;;;;;;;;;;;;;;;;;;4959221;28;19926;-72
2024/02/19 05:17:07;;;;;;;;;;;;;;;;;;4968486;28;19925;-71
2024/02/19 05:19:33;;;;;;;;;;;;;;;;;;4966339;28;19921;-72
2024/02/19 05:21:58;;;;;;;;;;;;;;;;;;4985678;28;19922;-72
2024/02/19 05:24:28;;;;;;;;;;;;;;;;;;4957043;28;19933;-71
2024/02/19 05:26:57;;;;;;;;;;;;;;;;;;4966971;28;19944;-71
2024/02/19 05:29:24;;;;;;;;;;;;;;;;;;4984258;28;20020;-71
2024/02/19 05:31:52;;;;;;;;;;;;;;;;;;4967760;28;19960;-71
2024/02/19 05:34:17;;;;;;;;;;;;;;;;;;4984730;28;19918;-71
2024/02/19 05:36:45;;;;;;;;;;;;;;;;;;4968761;28;19922;-73
2024/02/19 05:39:11;;;;;;;;;;;;;;;;;;4967830;28;20391;-72
2024/02/19 05:41:38;;;;;;;;;;;;;;;;;;4967582;28;19940;-71
2024/02/19 05:44:07;;;;;;;;;;;;;;;;;;4967377;28;20040;-71
2024/02/19 05:46:33;;;;;;;;;;;;;;;;;;4984413;28;19979;-72
2024/02/19 05:48:58;;;;;;;;;;;;;;;;;;4983620;28;20514;-72
2024/02/19 05:51:27;;;;;;;;;;;;;;;;;;4984261;28;20294;-72
2024/02/19 05:53:54;;;;;;;;;;;;;;;;;;4984982;28;19928;-72
2024/02/19 05:56:19;;;;;;;;;;;;;;;;;;4965189;28;19929;-72
2024/02/19 05:58:46;;;;;;;;;;;;;;;;;;4984788;28;19914;-72
2024/02/19 06:01:12;;;;;;;;;;;;;;;;;;4966538;28;19917;-70
2024/02/19 06:03:37;;;;;;;;;;;;;;;;;;4984719;28;20388;-71
2024/02/19 06:06:03;;;;;;;;;;;;;;;;;;4967369;28;19917;-71
2024/02/19 06:08:28;;;;;;;;;;;;;;;;;;4967843;28;19927;-72
2024/02/19 06:10:55;;;;;;;;;;;;;;;;;;4965611;28;20364;-71
2024/02/19 06:13:24;;;;;;;;;;;;;;;;;;4955292;28;19917;-71
2024/02/19 06:15:50;;;;;;;;;;;;;;;;;;4963822;28;20024;-71
2024/02/19 06:18:17;;;;;;;;;;;;;;;;;;4984389;28;19921;-71
2024/02/19 06:20:43;;;;;;;;;;;;;;;;;;4966632;28;19921;-71
2024/02/19 06:23:08;;;;;;;;;;;;;;;;;;4984570;28;20177;-71
2024/02/19 06:25:33;;;;;;;;;;;;;;;;;;4983980;28;19925;-71
2024/02/19 06:27:58;;;;;;;;;;;;;;;;;;4982047;28;19921;-71
2024/02/19 06:30:24;;;;;;;;;;;;;;;;;;4981649;28;19969;-71
2024/02/19 06:32:49;;;;;;;;;;;;;;;;;;4984368;28;20690;-73
2024/02/19 06:35:17;;;;;;;;;;;;;;;;;;4985453;28;19922;-72
2024/02/19 06:37:42;;;;;;;;;;;;;;;;;;4984114;28;20364;-71
2024/02/19 06:40:08;;;;;;;;;;;;;;;;;;4982225;28;19961;-71
2024/02/19 06:42:33;;;;;;;;;;;;;;;;;;4954338;28;19921;-71
2024/02/19 06:44:58;;;;;;;;;;;;;;;;;;4984308;28;20007;-72
2024/02/19 06:47:26;;;;;;;;;;;;;;;;;;4984749;28;19949;-71
2024/02/19 06:49:56;;;;;;;;;;;;;;;;;;4983080;28;19922;-71
2024/02/19 06:52:24;;;;;;;;;;;;;;;;;;4983258;28;20866;-71
2024/02/19 06:54:52;;;;;;;;;;;;;;;;;;4982851;28;19964;-71
2024/02/19 06:57:17;;;;;;;;;;;;;;;;;;4965532;28;19983;-71
2024/02/19 06:59:42;;;;;;;;;;;;;;;;;;4983241;28;19913;-71
2024/02/19 07:02:08;;;;;;;;;;;;;;;;;;4983806;28;20662;-73
2024/02/19 07:04:36;;;;;;;;;;;;;;;;;;4983963;28;20021;-71
2024/02/19 07:07:03;;;;;;;;;;;;;;;;;;4983507;28;20293;-71
2024/02/19 07:09:28;;;;;;;;;;;;;;;;;;4965741;28;20324;-71
2024/02/19 07:11:56;;;;;;;;;;;;;;;;;;4981691;28;19921;-71
2024/02/19 07:14:21;;;;;;;;;;;;;;;;;;4965344;28;20428;-71
2024/02/19 07:16:52;;;;;;;;;;;;;;;;;;4984724;28;19926;-71
2024/02/19 07:19:17;;;;;;;;;;;;;;;;;;4965914;28;20317;-71
2024/02/19 07:21:42;;;;;;;;;;;;;;;;;;4983201;28;19957;-71
2024/02/19 07:24:07;;;;;;;;;;;;;;;;;;4982305;28;19921;-71
2024/02/19 07:26:32;;;;;;;;;;;;;;;;;;4982192;28;20494;-71
2024/02/19 07:28:58;;;;;;;;;;;;;;;;;;4983600;28;20062;-71
2024/02/19 07:31:23;;;;;;;;;;;;;;;;;;4965353;28;19921;-70
2024/02/19 07:33:49;;;;;;;;;;;;;;;;;;4983234;28;20451;-70
2024/02/19 07:36:15;;;;;;;;;;;;;;;;;;4957244;28;19932;-71
2024/02/19 07:38:40;;;;;;;;;;;;;;;;;;4964050;28;19922;-70
2024/02/19 07:41:08;;;;;;;;;;;;;;;;;;4983463;28;20669;-70
2024/02/19 07:43:33;;;;;;;;;;;;;;;;;;4982527;28;19972;-70
2024/02/19 07:45:59;;;;;;;;;;;;;;;;;;4981996;28;19926;-70
2024/02/19 07:48:24;;;;;;;;;;;;;;;;;;4965433;28;19975;-70
2024/02/19 07:50:49;;;;;;;;;;;;;;;;;;4964052;28;19926;-71
2024/02/19 07:53:17;;;;;;;;;;;;;;;;;;4967309;28;19922;-70
2024/02/19 07:55:45;;;;;;;;;;;;;;;;;;4964288;28;20277;-70
2024/02/19 07:58:10;;;;;;;;;;;;;;;;;;4966296;28;20468;-70
2024/02/19 08:00:38;;;;;;;;;;;;;;;;;;4983204;28;19921;-72
2024/02/19 08:03:05;;;;;;;;;;;;;;;;;;4982894;28;19925;-71
2024/02/19 08:05:31;;;;;;;;;;;;;;;;;;4983291;28;20432;-71
2024/02/19 08:07:59;;;;;;;;;;;;;;;;;;4985320;28;20408;-71
2024/02/19 08:10:24;;;;;;;;;;;;;;;;;;4986245;28;20008;-70
2024/02/19 08:12:53;;;;;;;;;;;;;;;;;;4969352;28;19922;-71
2024/02/19 08:15:18;;;;;;;;;;;;;;;;;;4968768;28;20726;-71
2024/02/19 08:17:46;;;;;;;;;;;;;;;;;;4988288;28;20476;-71
2024/02/19 08:20:14;;;;;;;;;;;;;;;;;;4966872;28;20070;-71
2024/02/19 08:22:42;;;;;;;;;;;;;;;;;;4967156;28;19921;-71
2024/02/19 08:25:10;;;;;;;;;;;;;;;;;;4969572;28;19947;-70
2024/02/19 08:27:35;;;;;;;;;;;;;;;;;;4988415;28;19928;-71
2024/02/19 08:30:03;;;;;;;;;;;;;;;;;;4987552;28;19917;-70
2024/02/19 08:32:30;;;;;;;;;;;;;;;;;;4987319;28;19921;-70
2024/02/19 08:34:58;;;;;;;;;;;;;;;;;;4970276;28;19933;-70
2024/02/19 08:37:29;;;;;;;;;;;;;;;;;;4967956;28;19921;-70
2024/02/19 08:39:54;;;;;;;;;;;;;;;;;;4986638;28;19921;-70
2024/02/19 08:42:19;;;;;;;;;;;;;;;;;;4968970;28;19929;-70
2024/02/19 08:44:45;;;;;;;;;;;;;;;;;;4989062;28;19921;-70
2024/02/19 08:47:10;;;;;;;;;;;;;;;;;;4965872;28;19921;-72
2024/02/19 08:49:39;;;;;;;;;;;;;;;;;;4962087;28;20017;-69
2024/02/19 08:52:04;;;;;;;;;;;;;;;;;;4944505;28;19928;-70
2024/02/19 08:54:29;;;;;;;;;;;;;;;;;;4946376;28;20009;-71
2024/02/19 08:56:55;;;;;;;;;;;;;;;;;;4936221;28;19918;-70
2024/02/19 08:59:23;;;;;;;;;;;;;;;;;;4946235;28;20025;-70
2024/02/19 09:01:48;;;;;;;;;;;;;;;;;;4945761;28;19922;-71
2024/02/19 09:04:16;;;;;;;;;;;;;;;;;;4947611;28;19918;-70
2024/02/19 09:06:44;;;;;;;;;;;;;;;;;;4938116;28;19914;-71
2024/02/19 09:09:10;;;;;;;;;;;;;;;;;;4947388;28;20044;-71
2024/02/19 09:11:38;;;;;;;;;;;;;;;;;;4961930;28;19982;-70
2024/02/19 09:14:06;;;;;;;;;;;;;;;;;;4937356;28;20165;-71
2024/02/19 09:16:31;;;;;;;;;;;;;;;;;;4947802;28;20017;-71
2024/02/19 09:18:57;;;;;;;;;;;;;;;;;;4944565;28;20105;-73
2024/02/19 09:21:24;;;;;;;;;;;;;;;;;;4947024;28;20731;-71
2024/02/19 09:23:50;;;;;;;;;;;;;;;;;;4962317;28;19944;-71
2024/02/19 09:26:18;;;;;;;;;;;;;;;;;;4946089;28;20463;-70
2024/02/19 09:28:46;;;;;;;;;;;;;;;;;;4944447;28;20294;-70
2024/02/19 09:31:11;;;;;;;;;;;;;;;;;;4947105;28;19918;-71
2024/02/19 09:33:37;;;;;;;;;;;;;;;;;;4944453;28;20285;-71
2024/02/19 09:36:03;;;;;;;;;;;;;;;;;;4946558;28;21453;-70
2024/02/19 09:38:29;;;;;;;;;;;;;;;;;;4945567;28;20080;-73
2024/02/19 09:40:55;;;;;;;;;;;;;;;;;;4947914;28;19962;-71
2024/02/19 09:43:20;;;;;;;;;;;;;;;;;;4945406;28;20037;-73
2024/02/19 09:45:48;;;;;;;;;;;;;;;;;;4945008;28;19922;-70
2024/02/19 09:48:16;;;;;;;;;;;;;;;;;;4947178;28;19918;-72
2024/02/19 09:50:43;;;;;;;;;;;;;;;;;;4945372;28;20369;-70
2024/02/19 09:53:09;;;;;;;;;;;;;;;;;;4946474;28;19936;-72
2024/02/19 09:55:34;;;;;;;;;;;;;;;;;;4945225;28;21406;-71
2024/02/19 09:58:02;;;;;;;;;;;;;;;;;;4947474;28;19918;-70
2024/02/19 10:00:28;;;;;;;;;;;;;;;;;;4944499;28;20016;-71
2024/02/19 10:02:54;;;;;;;;;;;;;;;;;;4946106;28;19918;-73
2024/02/19 10:05:19;;;;;;;;;;;;;;;;;;4946047;28;20620;-69
2024/02/19 10:07:47;;;;;;;;;;;;;;;;;;4948644;28;19924;-70
2024/02/19 10:10:12;;;;;;;;;;;;;;;;;;4945237;28;20442;-70
2024/02/19 10:12:37;;;;;;;;;;;;;;;;;;4961453;28;19922;-71
2024/02/19 10:15:05;;;;;;;;;;;;;;;;;;4944552;28;20557;-71
2024/02/19 10:17:31;;;;;;;;;;;;;;;;;;4946412;28;19929;-72
2024/02/19 10:19:57;;;;;;;;;;;;;;;;;;4946642;28;19970;-70
2024/02/19 10:22:22;;;;;;;;;;;;;;;;;;4945678;28;20074;-71
2024/02/19 10:24:47;;;;;;;;;;;;;;;;;;4946402;28;20425;-71
2024/02/19 10:27:13;;;;;;;;;;;;;;;;;;4933134;28;20271;-71
2024/02/19 10:29:39;;;;;;;;;;;;;;;;;;4945279;28;20029;-72
2024/02/19 10:32:06;;;;;;;;;;;;;;;;;;4946999;28;20338;-72
2024/02/19 10:34:33;;;;;;;;;;;;;;;;;;4945680;28;20079;-72
2024/02/19 10:36:59;;;;;;;;;;;;;;;;;;4944371;28;19922;-71
2024/02/19 10:39:24;;;;;;;;;;;;;;;;;;4944206;28;20008;-70
2024/02/19 10:41:52;;;;;;;;;;;;;;;;;;4944203;28;19924;-71
2024/02/19 10:44:17;;;;;;;;;;;;;;;;;;4945167;28;19926;-72
2024/02/19 10:46:43;;;;;;;;;;;;;;;;;;4945194;28;19914;-71
2024/02/19 10:49:08;;;;;;;;;;;;;;;;;;4944824;28;19976;-70
2024/02/19 10:51:34;;;;;;;;;;;;;;;;;;4966610;28;19997;-70
2024/02/19 10:54:04;;;;;;;;;;;;;;;;;;4982004;28;19961;-70
2024/02/19 10:56:29;;;;;;;;;;;;;;;;;;4964469;28;20374;-69
2024/02/19 10:58:55;;;;;;;;;;;;;;;;;;4983759;28;19917;-69
2024/02/19 11:01:20;;;;;;;;;;;;;;;;;;4983619;28;19928;-70
2024/02/19 11:03:46;;;;;;;;;;;;;;;;;;4982680;28;19921;-68
2024/02/19 11:06:11;;;;;;;;;;;;;;;;;;4984265;28;20337;-68
2024/02/19 11:08:36;;;;;;;;;;;;;;;;;;4986097;28;19925;-68
2024/02/19 11:11:05;;;;;;;;;;;;;;;;;;4982649;28;20477;-68
2024/02/19 11:13:30;;;;;;;;;;;;;;;;;;4982909;28;20512;-69
2024/02/19 11:15:55;;;;;;;;;;;;;;;;;;4983940;28;19972;-69
2024/02/19 11:18:21;;;;;;;;;;;;;;;;;;4984144;28;19917;-69
2024/02/19 11:20:48;;;;;;;;;;;;;;;;;;4965994;28;19918;-69
2024/02/19 11:23:15;;;;;;;;;;;;;;;;;;4967451;28;19922;-69
2024/02/19 11:25:41;;;;;;;;;;;;;;;;;;4967366;28;20272;-70
2024/02/19 11:28:06;;;;;;;;;;;;;;;;;;4980961;28;19928;-70
2024/02/19 11:30:31;;;;;;;;;;;;;;;;;;4983169;28;19918;-69
2024/02/19 11:33:01;;;;;;;;;;;;;;;;;;4966592;28;19926;-69
2024/02/19 11:35:27;;;;;;;;;;;;;;;;;;4982698;28;19927;-70
2024/02/19 11:37:52;;;;;;;;;;;;;;;;;;4966073;28;19918;-71
2024/02/19 11:40:18;;;;;;;;;;;;;;;;;;4949064;28;19933;-70
2024/02/19 11:42:43;;;;;;;;;;;;;;;;;;4966191;28;19932;-70
2024/02/19 11:45:08;;;;;;;;;;;;;;;;;;4965242;28;19921;-70
2024/02/19 11:47:35;;;;;;;;;;;;;;;;;;4965740;28;19924;-70
2024/02/19 11:50:05;;;;;;;;;;;;;;;;;;4966307;28;19967;-70
2024/02/19 11:52:33;;;;;;;;;;;;;;;;;;4965777;28;20428;-70
2024/02/19 11:55:01;;;;;;;;;;;;;;;;;;4983099;28;20166;-71
2024/02/19 11:57:29;;;;;;;;;;;;;;;;;;4964929;28;20407;-71
2024/02/19 11:59:54;;;;;;;;;;;;;;;;;;4983649;28;19928;-71
2024/02/19 12:02:22;;;;;;;;;;;;;;;;;;4981891;28;19972;-71
2024/02/19 12:04:51;;;;;;;;;;;;;;;;;;4965362;28;19925;-71
2024/02/19 12:07:17;;;;;;;;;;;;;;;;;;4965396;28;20051;-71
2024/02/19 12:09:42;;;;;;;;;;;;;;;;;;4983067;28;19921;-72
2024/02/19 12:12:08;;;;;;;;;;;;;;;;;;4965942;28;19922;-73
2024/02/19 12:14:33;;;;;;;;;;;;;;;;;;4985252;28;19918;-72
2024/02/19 12:17:02;;;;;;;;;;;;;;;;;;4983445;28;19985;-72
2024/02/19 12:19:27;;;;;;;;;;;;;;;;;;4984159;28;19937;-71
2024/02/19 12:21:53;;;;;;;;;;;;;;;;;;4982081;28;20009;-71
2024/02/19 12:24:23;;;;;;;;;;;;;;;;;;4984126;28;20017;-72
2024/02/19 12:26:48;;;;;;;;;;;;;;;;;;4983949;28;19921;-72
2024/02/19 12:29:14;;;;;;;;;;;;;;;;;;4964631;28;20460;-73
2024/02/19 12:31:39;;;;;;;;;;;;;;;;;;4965443;28;19929;-72
2024/02/19 12:34:05;;;;;;;;;;;;;;;;;;4964358;28;20286;-72
2024/02/19 12:36:30;;;;;;;;;;;;;;;;;;4982338;28;20048;-73
2024/02/19 12:38:57;;;;;;;;;;;;;;;;;;4983279;28;19918;-72
2024/02/19 12:41:22;;;;;;;;;;;;;;;;;;4983015;28;19925;-72
2024/02/19 12:43:48;;;;;;;;;;;;;;;;;;4982452;28;19980;-73
2024/02/19 12:46:14;;;;;;;;;;;;;;;;;;4982994;28;19973;-72
2024/02/19 12:48:42;;;;;;;;;;;;;;;;;;4967755;28;19921;-73
2024/02/19 12:51:08;;;;;;;;;;;;;;;;;;4983512;28;19932;-73
2024/02/19 12:53:36;;;;;;;;;;;;;;;;;;4983098;28;19941;-72
2024/02/19 12:56:02;;;;;;;;;;;;;;;;;;4967069;28;19949;-72
2024/02/19 12:58:28;;;;;;;;;;;;;;;;;;4967369;28;19917;-72
2024/02/19 13:00:53;;;;;;;;;;;;;;;;;;4986738;28;19917;-73
2024/02/19 13:03:18;;;;;;;;;;;;;;;;;;4985106;28;19921;-73
2024/02/19 13:05:44;;;;;;;;;;;;;;;;;;4986247;28;19924;-74
2024/02/19 13:08:10;;;;;;;;;;;;;;;;;;4986617;28;20428;-72
2024/02/19 13:10:36;;;;;;;;;;;;;;;;;;4984611;28;19933;-72
2024/02/19 13:13:01;;;;;;;;;;;;;;;;;;4985926;28;20518;-72
2024/02/19 13:15:26;;;;;;;;;;;;;;;;;;4985600;28;19928;-73
2024/02/19 13:17:52;;;;;;;;;;;;;;;;;;4968123;28;19952;-72
2024/02/19 13:20:20;;;;;;;;;;;;;;;;;;4986007;28;19933;-73
2024/02/19 13:22:45;;;;;;;;;;;;;;;;;;4986668;28;19921;-75
2024/02/19 13:25:11;;;;;;;;;;;;;;;;;;4984680;28;20361;-71
2024/02/19 13:27:36;;;;;;;;;;;;;;;;;;4967101;28;19922;-74
2024/02/19 13:30:02;;;;;;;;;;;;;;;;;;4967813;28;20364;-71
2024/02/19 13:32:27;;;;;;;;;;;;;;;;;;4987430;28;20438;-71
2024/02/19 13:34:52;;;;;;;;;;;;;;;;;;4985646;28;19918;-75
2024/02/19 13:37:18;;;;;;;;;;;;;;;;;;4968794;28;19918;-73
2024/02/19 13:39:43;;;;;;;;;;;;;;;;;;4985860;28;19925;-74
2024/02/19 13:42:09;;;;;;;;;;;;;;;;;;4967116;28;19918;-75
2024/02/19 13:44:34;;;;;;;;;;;;;;;;;;4986712;28;19918;-74
2024/02/19 13:47:02;;;;;;;;;;;;;;;;;;4987325;28;19918;-74
2024/02/19 13:49:28;;;;;;;;;;;;;;;;;;4982760;28;20045;-77
2024/02/19 13:51:53;;;;;;;;;;;;;;;;;;4984973;28;19914;-73
2024/02/19 13:54:18;;;;;;;;;;;;;;;;;;4985642;28;20290;-77
2024/02/19 13:56:44;;;;;;;;;;;;;;;;;;4981545;28;20281;-77
2024/02/19 13:59:10;;;;;;;;;;;;;;;;;;4954333;28;19927;-76
2024/02/19 14:01:35;;;;;;;;;;;;;;;;;;4984671;28;20791;-73
2024/02/19 14:04:00;;;;;;;;;;;;;;;;;;4968954;28;19922;-77
2024/02/19 14:06:26;;;;;;;;;;;;;;;;;;4968378;28;20404;-76
2024/02/19 14:08:51;;;;;;;;;;;;;;;;;;4984773;28;19968;-75
2024/02/19 14:11:16;;;;;;;;;;;;;;;;;;4983693;28;19960;-76
2024/02/19 14:13:44;;;;;;;;;;;;;;;;;;4967597;28;20443;-77
2024/02/19 14:16:10;;;;;;;;;;;;;;;;;;4967588;28;19925;-78
2024/02/19 14:18:35;;;;;;;;;;;;;;;;;;4968399;28;19924;-79
2024/02/19 14:21:01;;;;;;;;;;;;;;;;;;4986733;28;19974;-75
2024/02/19 14:23:26;;;;;;;;;;;;;;;;;;4985307;28;19922;-77
2024/02/19 14:25:52;;;;;;;;;;;;;;;;;;4986220;28;19921;-75
2024/02/19 14:28:17;;;;;;;;;;;;;;;;;;4986966;28;19921;-76
2024/02/19 14:30:43;;;;;;;;;;;;;;;;;;4970668;28;20384;-75
2024/02/19 14:33:09;;;;;;;;;;;;;;;;;;4988304;28;19976;-74
2024/02/19 14:35:34;;;;;;;;;;;;;;;;;;4967307;28;20453;-74
2024/02/19 14:38:01;;;;;;;;;;;;;;;;;;4970042;28;19920;-74
2024/02/19 14:40:27;;;;;;;;;;;;;;;;;;4984270;28;19918;-74
2024/02/19 14:42:52;;;;;;;;;;;;;;;;;;4986318;28;19921;-72
2024/02/19 14:45:20;;;;;;;;;;;;;;;;;;4984648;28;19968;-73
2024/02/19 14:47:46;;;;;;;;;;;;;;;;;;4985143;28;20290;-73
2024/02/19 14:50:12;;;;;;;;;;;;;;;;;;4966004;28;19995;-71
2024/02/19 14:52:37;;;;;;;;;;;;;;;;;;4967225;28;19918;-71
2024/02/19 14:55:13;;;;;;;;;;;;;;;;;;4966445;28;19991;-71
2024/02/19 14:57:39;;;;;;;;;;;;;;;;;;4965772;28;19918;-70
2024/02/19 15:00:10;;;;;;;;;;;;;;;;;;4966621;28;19964;-73
2024/02/19 15:02:35;;;;;;;;;;;;;;;;;;4984570;28;19918;-73
2024/02/19 15:05:01;;;;;;;;;;;;;;;;;;4983431;28;20007;-71
2024/02/19 15:07:26;;;;;;;;;;;;;;;;;;4965053;28;19921;-73
2024/02/19 15:09:51;;;;;;;;;;;;;;;;;;4967007;28;19921;-73
2024/02/19 15:12:17;;;;;;;;;;;;;;;;;;4984466;28;20396;-71
2024/02/19 15:14:42;;;;;;;;;;;;;;;;;;4954142;28;20293;-71
2024/02/19 15:17:07;;;;;;;;;;;;;;;;;;4982434;28;19969;-70
2024/02/19 15:19:33;;;;;;;;;;;;;;;;;;4984656;28;20508;-71
2024/02/19 15:21:58;;;;;;;;;;;;;;;;;;4966438;28;21050;-71
2024/02/19 15:24:26;;;;;;;;;;;;;;;;;;4973060;28;19918;-72
2024/02/19 15:26:53;;;;;;;;;;;;;;;;;;4964619;28;19921;-70
2024/02/19 15:29:20;;;;;;;;;;;;;;;;;;4982700;28;19924;-70
2024/02/19 15:31:45;;;;;;;;;;;;;;;;;;4983656;28;19988;-71
2024/02/19 15:34:11;;;;;;;;;;;;;;;;;;4966965;28;20056;-71
2024/02/19 15:36:51;;;;;;;;;;;;;;;;;;5034309;27;2064796;-71
2024/02/19 15:39:16;;;;;;;;;;;;;;;;;;5089405;28;19912;-72
2024/02/19 15:41:41;;;;;;;;;;;;;;;;;;5104977;28;19928;-71
2024/02/19 15:44:07;;;;;;;;;;;;;;;;;;5087976;28;19920;-71
2024/02/19 15:46:32;;;;;;;;;;;;;;;;;;5104686;28;19919;-72
2024/02/19 15:49:00;;;;;;;;;;;;;;;;;;5104101;28;19947;-71
2024/02/19 15:51:26;;;;;;;;;;;;;;;;;;5089394;28;20396;-71
2024/02/19 15:53:52;;;;;;;;;;;;;;;;;;5088228;28;19919;-71
2024/02/19 15:56:18;;;;;;;;;;;;;;;;;;5086402;28;20442;-72
2024/02/19 15:58:47;;;;;;;;;;;;;;;;;;5071973;28;19916;-72
2024/02/19 16:01:12;;;;;;;;;;;;;;;;;;5102639;28;20445;-71
2024/02/19 16:03:38;;;;;;;;;;;;;;;;;;5089956;28;19915;-72
2024/02/19 16:06:06;;;;;;;;;;;;;;;;;;5103992;28;19912;-72
2024/02/19 16:08:31;;;;;;;;;;;;;;;;;;5089295;28;19926;-71
2024/02/19 16:11:01;;;;;;;;;;;;;;;;;;5086571;28;20288;-71
2024/02/19 16:13:26;;;;;;;;;;;;;;;;;;5104767;28;20003;-71
2024/02/19 16:15:52;;;;;;;;;;;;;;;;;;5103057;28;20578;-71
2024/02/19 16:18:17;;;;;;;;;;;;;;;;;;5085574;28;19973;-71
2024/02/19 16:20:44;;;;;;;;;;;;;;;;;;5088478;28;20022;-70
2024/02/19 16:23:09;;;;;;;;;;;;;;;;;;5087196;28;20040;-70
2024/02/19 16:25:34;;;;;;;;;;;;;;;;;;5102995;28;20014;-70
2024/02/19 16:28:00;;;;;;;;;;;;;;;;;;5100388;28;19992;-69
2024/02/19 16:30:26;;;;;;;;;;;;;;;;;;5084859;28;20419;-70
2024/02/19 16:32:52;;;;;;;;;;;;;;;;;;5089239;28;19920;-70
2024/02/19 16:35:17;;;;;;;;;;;;;;;;;;5102900;28;20020;-69
2024/02/19 16:37:42;;;;;;;;;;;;;;;;;;5082662;28;20018;-69